createdAt,value
2022-10-30T00:01:06.400Z,29.37
2022-10-30T00:03:35.194Z,29.67
2022-10-30T00:06:06.829Z,30.57
2022-10-30T00:08:37.160Z,29.07
2022-10-30T00:11:10.727Z,30.17
2022-10-30T00:13:39.993Z,30.10
2022-10-30T00:16:09.767Z,29.90
2022-10-30T00:18:39.984Z,30.43
2022-10-30T00:21:10.208Z,30.60
2022-10-30T00:23:41.002Z,31.17
2022-10-30T00:26:09.933Z,29.83
2022-10-30T00:28:38.552Z,30.13
2022-10-30T00:31:07.259Z,30.00
2022-10-30T00:33:35.893Z,29.17
2022-10-30T00:36:06.566Z,29.17
2022-10-30T00:38:36.366Z,28.90
2022-10-30T00:41:06.644Z,28.00
2022-10-30T00:43:38.059Z,28.67
2022-10-30T00:46:16.149Z,28.87
2022-10-30T00:48:47.134Z,28.50
2022-10-30T00:51:16.826Z,29.20
2022-10-30T00:53:48.028Z,29.60
2022-10-30T00:56:21.533Z,28.83
2022-10-30T00:58:53.813Z,28.80
2022-10-30T01:01:27.448Z,31.83
2022-10-30T01:03:59.228Z,32.77
2022-10-30T01:06:28.773Z,33.73
2022-10-30T01:08:59.997Z,32.03
2022-10-30T01:11:30.977Z,30.80
2022-10-30T01:14:04.242Z,30.53
2022-10-30T01:16:50.316Z,31.60
2022-10-30T01:19:26.236Z,32.00
2022-10-30T01:22:10.675Z,30.90
2022-10-30T01:24:59.948Z,32.87
2022-10-30T01:27:40.478Z,30.80
2022-10-30T01:30:23.976Z,31.27
2022-10-30T01:33:05.972Z,32.50
2022-10-30T01:35:40.427Z,31.30
2022-10-30T01:38:14.860Z,32.73
2022-10-30T01:40:44.902Z,35.47
2022-10-30T01:43:15.819Z,36.37
2022-10-30T01:46:09.997Z,36.87
2022-10-30T01:49:10.461Z,34.47
2022-10-30T01:51:58.784Z,36.20
2022-10-30T01:54:38.636Z,37.90
2022-10-30T01:57:14.365Z,36.27
2022-10-30T01:59:51.219Z,37.10
2022-10-30T02:02:20.535Z,38.23
2022-10-30T02:04:49.228Z,34.60
2022-10-30T02:07:18.146Z,34.00
2022-10-30T02:09:52.866Z,33.40
2022-10-30T02:12:22.327Z,31.40
2022-10-30T02:14:56.043Z,30.37
2022-10-30T02:17:26.553Z,31.30
2022-10-30T02:19:55.479Z,29.10
2022-10-30T02:22:26.969Z,30.20
2022-10-30T02:24:55.627Z,28.17
2022-10-30T02:27:26.359Z,28.87
2022-10-30T02:29:54.968Z,27.30
2022-10-30T02:32:23.870Z,27.60
2022-10-30T02:34:52.452Z,27.47
2022-10-30T02:37:21.079Z,25.37
2022-10-30T02:39:51.393Z,30.67
2022-10-30T02:42:20.715Z,32.20
2022-10-30T02:44:49.540Z,35.10
2022-10-30T02:47:18.133Z,32.70
2022-10-30T02:49:46.736Z,37.20
2022-10-30T02:52:15.523Z,37.83
2022-10-30T02:54:44.451Z,36.77
2022-10-30T02:57:14.426Z,37.77
2022-10-30T02:59:43.081Z,34.63
2022-10-30T03:02:12.027Z,36.90
2022-10-30T03:04:40.786Z,34.97
2022-10-30T03:07:09.596Z,33.57
2022-10-30T03:09:38.385Z,41.17
2022-10-30T03:12:07.644Z,35.07
2022-10-30T03:14:37.620Z,43.23
2022-10-30T03:17:06.561Z,41.10
2022-10-30T03:19:35.708Z,47.17
2022-10-30T03:22:04.312Z,43.67
2022-10-30T03:24:33.225Z,43.57
2022-10-30T03:27:01.900Z,41.83
2022-10-30T03:29:31.077Z,50.70
2022-10-30T03:32:01.277Z,40.40
2022-10-30T03:34:34.617Z,39.00
2022-10-30T03:37:07.210Z,40.90
2022-10-30T03:39:36.699Z,37.43
2022-10-30T03:42:05.679Z,36.13
2022-10-30T03:44:34.391Z,36.87
2022-10-30T03:47:06.252Z,41.80
2022-10-30T03:49:39.842Z,44.10
2022-10-30T03:52:12.715Z,41.57
2022-10-30T03:54:41.291Z,42.13
2022-10-30T03:57:11.423Z,43.77
2022-10-30T03:59:49.658Z,45.40
2022-10-30T04:02:38.315Z,45.97
2022-10-30T04:05:07.506Z,46.80
2022-10-30T04:07:36.148Z,45.23
2022-10-30T04:10:05.572Z,48.53
2022-10-30T04:12:35.871Z,50.33
2022-10-30T04:15:05.244Z,51.27
2022-10-30T04:17:34.397Z,53.47
2022-10-30T04:20:10.003Z,56.27
2022-10-30T04:22:38.607Z,55.00
2022-10-30T04:25:07.962Z,58.70
2022-10-30T04:27:41.648Z,57.13
2022-10-30T04:30:12.893Z,58.57
2022-10-30T04:32:48.132Z,57.90
2022-10-30T04:35:19.890Z,55.83
2022-10-30T04:37:54.451Z,58.43
2022-10-30T04:40:23.552Z,62.63
2022-10-30T04:42:57.971Z,64.97
2022-10-30T04:45:27.658Z,63.10
2022-10-30T04:48:03.004Z,67.80
2022-10-30T04:50:36.175Z,66.03
2022-10-30T04:53:07.474Z,67.80
2022-10-30T04:55:36.366Z,67.80
2022-10-30T04:58:05.061Z,63.73
2022-10-30T05:00:38.332Z,60.57
2022-10-30T05:03:19.697Z,64.17
2022-10-30T05:05:57.149Z,65.80
2022-10-30T05:08:25.940Z,64.07
2022-10-30T05:10:55.207Z,64.70
2022-10-30T05:13:24.194Z,63.50
2022-10-30T05:15:56.191Z,64.90
2022-10-30T05:18:25.360Z,60.47
2022-10-30T05:20:55.842Z,62.13
2022-10-30T05:23:24.718Z,62.30
2022-10-30T05:25:54.035Z,59.87
2022-10-30T05:28:22.823Z,57.27
2022-10-30T05:30:57.379Z,58.60
2022-10-30T05:33:55.157Z,56.77
2022-10-30T05:36:27.270Z,56.83
2022-10-30T05:38:56.060Z,56.93
2022-10-30T05:41:37.687Z,56.97
2022-10-30T05:44:06.793Z,56.77
2022-10-30T05:46:36.005Z,58.67
2022-10-30T05:49:15.510Z,58.27
2022-10-30T05:51:45.563Z,62.27
2022-10-30T05:54:14.313Z,62.63
2022-10-30T05:56:57.916Z,62.63
2022-10-30T05:59:26.697Z,61.87
2022-10-30T06:01:56.062Z,66.67
2022-10-30T06:04:25.481Z,68.60
2022-10-30T06:06:55.995Z,72.93
2022-10-30T06:09:24.803Z,68.07
2022-10-30T06:12:12.147Z,71.33
2022-10-30T06:15:01.330Z,70.00
2022-10-30T06:17:32.354Z,71.13
2022-10-30T06:20:08.403Z,66.63
2022-10-30T06:22:57.836Z,66.33
2022-10-30T06:25:39.395Z,64.43
2022-10-30T06:28:15.168Z,67.20
2022-10-30T06:30:44.559Z,64.00
2022-10-30T06:33:13.416Z,64.30
2022-10-30T06:35:50.483Z,65.50
2022-10-30T06:38:22.358Z,62.23
2022-10-30T06:40:53.089Z,61.23
2022-10-30T06:43:48.291Z,59.63
2022-10-30T06:46:22.153Z,58.00
2022-10-30T06:48:52.442Z,55.73
2022-10-30T06:51:21.391Z,55.33
2022-10-30T06:53:51.882Z,55.23
2022-10-30T06:56:38.974Z,56.10
2022-10-30T06:59:26.109Z,53.63
2022-10-30T07:02:14.785Z,56.23
2022-10-30T07:04:50.517Z,56.93
2022-10-30T07:07:20.033Z,63.00
2022-10-30T07:09:50.359Z,73.60
2022-10-30T07:12:23.365Z,59.43
2022-10-30T07:15:12.340Z,53.80
2022-10-30T07:17:59.940Z,51.73
2022-10-30T07:20:31.023Z,50.27
2022-10-30T07:23:00.571Z,50.67
2022-10-30T07:25:30.636Z,48.23
2022-10-30T07:28:17.411Z,48.20
2022-10-30T07:30:55.568Z,48.53
2022-10-30T07:33:50.343Z,48.67
2022-10-30T07:36:57.477Z,53.60
2022-10-30T07:39:41.724Z,50.00
2022-10-30T07:42:23.946Z,50.83
2022-10-30T07:45:15.872Z,49.60
2022-10-30T07:48:19.362Z,55.27
2022-10-30T07:50:57.591Z,52.43
2022-10-30T07:53:26.231Z,50.87
2022-10-30T07:55:55.066Z,41.70
2022-10-30T07:58:48.279Z,39.87
2022-10-30T08:01:35.717Z,38.00
2022-10-30T08:04:18.535Z,38.67
2022-10-30T08:06:47.508Z,36.60
2022-10-30T08:09:16.408Z,33.80
2022-10-30T08:11:48.374Z,32.60
2022-10-30T08:14:19.910Z,32.57
2022-10-30T08:16:48.838Z,33.20
2022-10-30T08:19:17.608Z,32.10
2022-10-30T08:21:46.193Z,31.63
2022-10-30T08:24:19.656Z,33.03
2022-10-30T08:26:53.121Z,31.93
2022-10-30T08:29:25.404Z,31.70
2022-10-30T08:31:54.786Z,32.87
2022-10-30T08:34:27.572Z,34.93
2022-10-30T08:36:57.687Z,32.23
2022-10-30T08:39:26.688Z,31.53
2022-10-30T08:41:59.669Z,31.50
2022-10-30T08:44:34.053Z,29.27
2022-10-30T08:47:20.962Z,28.17
2022-10-30T08:49:49.614Z,26.77
2022-10-30T08:52:21.444Z,26.93
2022-10-30T08:54:55.925Z,27.20
2022-10-30T08:57:26.893Z,27.03
2022-10-30T08:59:59.273Z,27.93
2022-10-30T09:02:47.819Z,27.40
2022-10-30T09:05:35.385Z,27.57
2022-10-30T09:08:24.126Z,27.10
2022-10-30T09:11:12.555Z,26.87
2022-10-30T09:13:41.444Z,25.03
2022-10-30T09:16:12.281Z,26.27
2022-10-30T09:18:41.076Z,27.07
2022-10-30T09:21:09.925Z,26.13
2022-10-30T09:23:45.451Z,26.87
2022-10-30T09:26:40.373Z,25.70
2022-10-30T09:29:19.892Z,25.73
2022-10-30T09:32:10.554Z,26.47
2022-10-30T09:35:02.290Z,28.17
2022-10-30T09:37:36.235Z,27.60
2022-10-30T09:40:10.164Z,28.67
2022-10-30T09:42:47.412Z,28.10
2022-10-30T09:45:30.067Z,26.27
2022-10-30T09:48:21.671Z,26.90
2022-10-30T09:51:42.715Z,26.00
2022-10-30T09:54:20.828Z,27.20
2022-10-30T09:57:01.276Z,26.48
2022-10-30T09:59:44.625Z,26.20
2022-10-30T10:02:37.001Z,24.63
2022-10-30T10:05:16.828Z,25.23
2022-10-30T10:08:10.253Z,25.23
2022-10-30T10:11:15.510Z,24.52
2022-10-30T10:13:51.511Z,24.85
2022-10-30T10:16:21.902Z,24.83
2022-10-30T10:18:57.503Z,25.08
2022-10-30T10:21:29.976Z,23.73
2022-10-30T10:24:02.194Z,23.23
2022-10-30T10:26:36.428Z,24.90
2022-10-30T10:29:25.964Z,24.73
2022-10-30T10:32:11.552Z,24.15
2022-10-30T10:34:54.211Z,25.63
2022-10-30T10:37:35.888Z,25.17
2022-10-30T10:40:23.877Z,26.63
2022-10-30T10:43:04.957Z,25.35
2022-10-30T10:45:42.575Z,25.85
2022-10-30T10:48:38.484Z,24.90
2022-10-30T10:51:11.934Z,24.25
2022-10-30T10:53:49.840Z,25.60
2022-10-30T10:56:20.262Z,25.13
2022-10-30T10:58:53.250Z,26.00
2022-10-30T11:01:27.646Z,25.90
2022-10-30T11:04:01.072Z,23.38
2022-10-30T11:06:34.576Z,25.90
2022-10-30T11:09:16.614Z,26.52
2022-10-30T11:11:45.590Z,30.23
2022-10-30T11:14:16.629Z,35.13
2022-10-30T11:16:59.527Z,33.03
2022-10-30T11:19:30.863Z,34.10
2022-10-30T11:22:00.443Z,33.35
2022-10-30T11:24:33.457Z,30.92
2022-10-30T11:27:24.505Z,27.92
2022-10-30T11:29:58.835Z,27.02
2022-10-30T11:32:30.111Z,26.38
2022-10-30T11:35:04.188Z,24.48
2022-10-30T11:37:34.787Z,24.27
2022-10-30T11:40:08.159Z,24.38
2022-10-30T11:42:37.629Z,25.00
2022-10-30T11:45:14.489Z,24.92
2022-10-30T11:47:44.387Z,26.25
2022-10-30T11:50:20.394Z,25.15
2022-10-30T11:52:52.402Z,26.45
2022-10-30T11:55:28.656Z,24.63
2022-10-30T11:57:59.314Z,24.95
2022-10-30T12:00:31.865Z,25.60
2022-10-30T12:03:03.520Z,23.80
2022-10-30T12:05:38.535Z,23.63
2022-10-30T12:08:21.189Z,22.85
2022-10-30T12:11:00.812Z,23.65
2022-10-30T12:13:35.163Z,22.98
2022-10-30T12:16:10.970Z,24.17
2022-10-30T12:18:41.508Z,23.17
2022-10-30T12:21:10.445Z,23.17
2022-10-30T12:23:40.779Z,23.42
2022-10-30T12:26:14.076Z,24.50
2022-10-30T12:28:52.258Z,25.45
2022-10-30T12:31:24.765Z,24.95
2022-10-30T12:34:03.710Z,23.90
2022-10-30T12:36:37.967Z,20.35
2022-10-30T12:39:13.385Z,18.30
2022-10-30T12:41:49.052Z,18.08
2022-10-30T12:44:21.735Z,18.70
2022-10-30T12:46:57.185Z,18.95
2022-10-30T12:49:32.510Z,18.85
2022-10-30T12:52:08.099Z,18.40
2022-10-30T12:54:44.851Z,19.38
2022-10-30T12:57:18.114Z,17.95
2022-10-30T12:59:58.574Z,18.15
2022-10-30T13:02:52.135Z,18.65
2022-10-30T13:05:27.725Z,18.00
2022-10-30T13:08:05.756Z,18.27
2022-10-30T13:10:40.181Z,20.45
2022-10-30T13:13:14.354Z,19.55
2022-10-30T13:15:47.461Z,19.92
2022-10-30T13:18:18.775Z,19.00
2022-10-30T13:21:01.501Z,19.92
2022-10-30T13:23:37.179Z,19.92
2022-10-30T13:26:14.822Z,19.85
2022-10-30T13:28:53.692Z,19.50
2022-10-30T13:31:30.161Z,20.55
2022-10-30T13:34:04.443Z,20.73
2022-10-30T13:36:42.490Z,28.50
2022-10-30T13:39:23.301Z,38.97
2022-10-30T13:42:15.899Z,30.58
2022-10-30T13:44:56.772Z,22.88
2022-10-30T13:47:33.667Z,22.63
2022-10-30T13:50:19.789Z,21.60
2022-10-30T13:52:54.894Z,21.25
2022-10-30T13:55:27.557Z,21.83
2022-10-30T13:58:02.650Z,21.90
2022-10-30T14:00:51.338Z,21.83
2022-10-30T14:03:38.957Z,23.27
2022-10-30T14:06:18.371Z,25.75
2022-10-30T14:08:53.983Z,26.90
2022-10-30T14:11:22.878Z,24.45
2022-10-30T14:13:56.583Z,24.37
2022-10-30T14:16:42.776Z,23.73
2022-10-30T14:19:12.967Z,24.52
2022-10-30T14:21:55.443Z,24.97
2022-10-30T14:27:11.270Z,27.42
2022-10-30T14:29:49.291Z,27.27
2022-10-30T14:32:42.660Z,26.03
2022-10-30T14:35:33.243Z,27.27
2022-10-30T14:38:28.691Z,26.90
2022-10-30T14:41:14.715Z,27.43
2022-10-30T14:43:50.878Z,27.30
2022-10-30T14:46:28.540Z,27.17
2022-10-30T14:49:07.073Z,29.47
2022-10-30T14:51:42.682Z,29.70
2022-10-30T14:54:18.748Z,30.00
2022-10-30T14:56:49.405Z,29.43
2022-10-30T14:59:35.484Z,29.07
2022-10-30T15:02:22.436Z,27.33
2022-10-30T15:05:19.067Z,27.43
2022-10-30T15:07:53.774Z,27.23
2022-10-30T15:10:31.724Z,31.10
2022-10-30T15:13:10.808Z,27.80
2022-10-30T15:15:39.880Z,28.47
2022-10-30T15:18:11.171Z,28.90
2022-10-30T15:20:41.632Z,30.70
2022-10-30T15:23:13.623Z,31.67
2022-10-30T15:25:48.859Z,31.40
2022-10-30T15:28:20.713Z,33.80
2022-10-30T15:31:04.144Z,34.10
2022-10-30T15:33:35.486Z,31.43
2022-10-30T15:36:06.567Z,32.77
2022-10-30T15:38:35.474Z,37.03
2022-10-30T15:41:05.393Z,36.03
2022-10-30T15:43:36.728Z,36.27
2022-10-30T15:46:11.175Z,34.90
2022-10-30T15:48:42.935Z,38.43
2022-10-30T15:51:18.143Z,38.53
2022-10-30T15:53:49.093Z,41.03
2022-10-30T15:56:22.406Z,40.23
2022-10-30T15:58:54.430Z,38.57
2022-10-30T16:01:28.481Z,38.47
2022-10-30T16:03:57.571Z,38.30
2022-10-30T16:06:29.590Z,39.83
2022-10-30T16:08:58.580Z,42.17
2022-10-30T16:11:28.650Z,49.13
2022-10-30T16:13:57.282Z,47.87
2022-10-30T16:16:29.119Z,45.37
2022-10-30T16:19:02.045Z,48.63
2022-10-30T16:21:35.147Z,45.60
2022-10-30T16:24:05.903Z,44.33
2022-10-30T16:26:37.753Z,42.70
2022-10-30T16:29:21.307Z,39.83
2022-10-30T16:31:51.680Z,35.87
2022-10-30T16:34:26.417Z,36.67
2022-10-30T16:36:58.140Z,38.40
2022-10-30T16:39:27.592Z,37.47
2022-10-30T16:41:59.124Z,35.70
2022-10-30T16:44:29.426Z,42.30
2022-10-30T16:47:01.013Z,45.07
2022-10-30T16:49:32.579Z,49.47
2022-10-30T16:52:06.623Z,52.33
2022-10-30T16:54:39.354Z,62.40
2022-10-30T16:57:17.831Z,70.83
2022-10-30T16:59:49.595Z,61.53
2022-10-30T17:02:21.301Z,57.83
2022-10-30T17:04:57.195Z,57.97
2022-10-30T17:07:28.960Z,56.80
2022-10-30T17:09:58.679Z,59.67
2022-10-30T17:12:29.008Z,69.43
2022-10-30T17:15:04.825Z,59.93
2022-10-30T17:17:36.478Z,61.90
2022-10-30T17:20:15.612Z,65.20
2022-10-30T17:22:47.622Z,62.27
2022-10-30T17:25:18.484Z,65.20
2022-10-30T17:27:49.515Z,70.53
2022-10-30T17:30:38.402Z,70.47
2022-10-30T17:33:27.398Z,63.20
2022-10-30T17:35:56.350Z,64.43
2022-10-30T17:38:26.413Z,60.27
2022-10-30T17:40:55.354Z,67.27
2022-10-30T17:43:28.557Z,103.47
2022-10-30T17:45:57.638Z,69.73
2022-10-30T17:48:29.055Z,63.40
2022-10-30T17:50:57.615Z,49.10
2022-10-30T17:53:28.100Z,49.10
2022-10-30T17:56:00.885Z,51.40
2022-10-30T17:58:30.993Z,51.73
2022-10-30T18:01:00.570Z,54.83
2022-10-30T18:03:29.667Z,54.93
2022-10-30T18:06:00.644Z,53.13
2022-10-30T18:08:31.010Z,52.97
2022-10-30T18:10:59.602Z,58.43
2022-10-30T18:13:28.438Z,55.40
2022-10-30T18:15:59.409Z,52.93
2022-10-30T18:18:28.101Z,59.70
2022-10-30T18:20:56.930Z,55.67
2022-10-30T18:26:19.504Z,53.13
2022-10-30T18:28:48.486Z,58.00
2022-10-30T18:31:18.932Z,64.90
2022-10-30T18:33:47.941Z,64.90
2022-10-30T18:36:18.739Z,66.70
2022-10-30T18:38:47.828Z,62.97
2022-10-30T18:41:20.599Z,60.10
2022-10-30T18:43:49.508Z,68.13
2022-10-30T18:46:18.424Z,82.00
2022-10-30T18:48:47.057Z,114.03
2022-10-30T18:51:19.794Z,102.47
2022-10-30T18:53:52.640Z,103.00
2022-10-30T18:56:24.536Z,90.67
2022-10-30T18:58:56.725Z,88.63
2022-10-30T19:01:31.598Z,88.20
2022-10-30T19:04:02.351Z,89.27
2022-10-30T19:06:32.963Z,98.00
2022-10-30T19:09:01.533Z,97.77
2022-10-30T19:11:32.130Z,106.10
2022-10-30T19:14:01.512Z,113.03
2022-10-30T19:16:30.728Z,113.67
2022-10-30T19:18:59.611Z,102.33
2022-10-30T19:21:28.259Z,96.77
2022-10-30T19:23:57.110Z,94.87
2022-10-30T19:26:25.769Z,97.83
2022-10-30T19:28:56.287Z,94.97
2022-10-30T19:31:24.905Z,85.90
2022-10-30T19:33:57.345Z,83.37
2022-10-30T19:36:29.332Z,82.60
2022-10-30T19:38:58.089Z,78.77
2022-10-30T19:41:27.641Z,82.43
2022-10-30T19:43:57.872Z,80.13
2022-10-30T19:46:26.994Z,78.70
2022-10-30T19:48:57.624Z,72.67
2022-10-30T19:51:27.161Z,66.30
2022-10-30T19:53:56.321Z,58.47
2022-10-30T19:56:26.050Z,58.63
2022-10-30T19:58:55.638Z,52.67
2022-10-30T20:01:26.915Z,50.47
2022-10-30T20:03:56.787Z,47.33
2022-10-30T20:06:27.144Z,46.40
2022-10-30T20:08:57.834Z,46.37
2022-10-30T20:11:26.959Z,44.97
2022-10-30T20:13:55.946Z,45.77
2022-10-30T20:16:26.204Z,43.70
2022-10-30T20:18:55.081Z,40.87
2022-10-30T20:21:23.895Z,39.30
2022-10-30T20:23:52.803Z,39.73
2022-10-30T20:26:26.182Z,42.57
2022-10-30T20:28:55.633Z,41.53
2022-10-30T20:31:25.849Z,45.27
2022-10-30T20:33:54.470Z,41.63
2022-10-30T20:36:22.950Z,43.10
2022-10-30T20:38:51.645Z,43.53
2022-10-30T20:41:23.192Z,43.93
2022-10-30T20:43:52.107Z,42.97
2022-10-30T20:46:21.496Z,42.57
2022-10-30T20:48:51.645Z,45.93
2022-10-30T20:51:21.403Z,43.60
2022-10-30T20:53:50.028Z,43.00
2022-10-30T20:56:18.811Z,41.03
2022-10-30T20:58:47.584Z,42.93
2022-10-30T21:01:16.226Z,42.87
2022-10-30T21:03:44.963Z,44.93
2022-10-30T21:06:15.775Z,42.93
2022-10-30T21:08:44.621Z,43.53
2022-10-30T21:11:13.171Z,45.70
2022-10-30T21:13:41.796Z,45.17
2022-10-30T21:16:11.469Z,46.00
2022-10-30T21:18:40.169Z,43.90
2022-10-30T21:21:11.611Z,44.43
2022-10-30T21:23:41.658Z,44.40
2022-10-30T21:26:12.134Z,47.93
2022-10-30T21:28:40.959Z,45.97
2022-10-30T21:31:13.852Z,45.63
2022-10-30T21:33:42.651Z,48.87
2022-10-30T21:36:13.990Z,48.93
2022-10-30T21:38:45.658Z,48.30
2022-10-30T21:41:15.996Z,49.53
2022-10-30T21:43:44.880Z,47.97
2022-10-30T21:46:14.303Z,53.17
2022-10-30T21:48:43.068Z,50.60
2022-10-30T21:51:13.063Z,52.23
2022-10-30T21:53:43.924Z,57.60
2022-10-30T21:56:14.591Z,52.47
2022-10-30T21:58:44.851Z,51.27
2022-10-30T22:01:18.508Z,46.43
2022-10-30T22:03:47.834Z,46.50
2022-10-30T22:06:18.806Z,45.70
2022-10-30T22:08:50.153Z,44.67
2022-10-30T22:11:19.850Z,44.70
2022-10-30T22:13:48.864Z,45.47
2022-10-30T22:16:17.522Z,42.97
2022-10-30T22:18:46.343Z,44.20
2022-10-30T22:21:15.305Z,45.93
2022-10-30T22:23:44.407Z,46.37
2022-10-30T22:26:16.469Z,46.87
2022-10-30T22:28:45.785Z,45.03
2022-10-30T22:31:15.940Z,47.20
2022-10-30T22:33:45.265Z,48.07
2022-10-30T22:36:18.622Z,48.03
2022-10-30T22:38:48.099Z,49.83
2022-10-30T22:41:19.931Z,51.83
2022-10-30T22:43:50.043Z,50.07
2022-10-30T22:46:19.985Z,53.03
2022-10-30T22:48:48.813Z,53.37
2022-10-30T22:51:19.798Z,49.57
2022-10-30T22:53:55.384Z,49.40
2022-10-30T22:56:27.782Z,49.13
2022-10-30T22:58:57.208Z,46.90
2022-10-30T23:01:27.662Z,46.53
2022-10-30T23:03:58.383Z,44.97
2022-10-30T23:06:28.043Z,41.97
2022-10-30T23:08:59.391Z,40.73
2022-10-30T23:11:30.580Z,43.80
2022-10-30T23:13:59.447Z,47.87
2022-10-30T23:16:28.304Z,43.93
2022-10-30T23:18:58.586Z,42.40
2022-10-30T23:21:29.374Z,47.17
2022-10-30T23:23:58.637Z,50.17
2022-10-30T23:26:31.815Z,48.60
2022-10-30T23:29:01.595Z,48.70
2022-10-30T23:31:32.527Z,47.03
2022-10-30T23:34:02.732Z,49.97
2022-10-30T23:36:31.382Z,53.23
2022-10-30T23:39:01.716Z,49.33
2022-10-30T23:41:34.487Z,49.83
2022-10-30T23:44:06.299Z,49.47
2022-10-30T23:46:36.203Z,47.90
2022-10-30T23:49:05.414Z,48.67
2022-10-30T23:51:34.876Z,48.13
2022-10-30T23:54:03.631Z,47.77
2022-10-30T23:56:33.784Z,45.30
2022-10-30T23:59:02.599Z,47.20
